PTW weather

Los Gemelos Dorados Airport
Puerto Wilches, Santander Department, Colombia

Public forecast

Using degrees Celsius for public forecast. Weather courtesy of forecast.io.

Closest aviation weather report (METAR) to Los Gemelos Dorados Airport

Report is more than 2 hours old.

Closest report is YariguĂ­es Airport, 20.5 nm (37.9 km) S. Retrieved 2020/02/23 00:00 UTC (5 hours ago):

SKEJ 230000Z 18003KT 9999 FEW020 SCT200 31/23 A2981

Closest aviation forecast (TAF) to Los Gemelos Dorados Airport

Closest forecast is Palonegro Airport, 37.8 nm (69.9 km) ESE. Retrieved 2020-02-23 00:30 UTC (4 hours ago):

TAF SKBG 222230Z 2300/2324 32004KT 9999 SCT015 SCT080 TEMPO 2303/2306 8000 DZ BKN010 TEMPO 2308/2312 2000 BCFG BKN008 TX27/2318Z TN19/2311Z